Time;durP1;ratioP1;P1;durP2;ratioP2;P2;SDS_P1;SDS_P2;PMS_P1;PMS_P2;Temp;Humidity;BMP_temperature;BMP_pressure;BME280_temperature;BME280_humidity;BME280_pressure;Samples;Min_cycle;Max_cycle;Signal;HPM_P1;HPM_P2
2021/07/28 00:02:08;;;;;;;12.58;8.38;;;;;;;18.61;72.58;100233.65;1695099;84;21015;-74
2021/07/28 00:04:38;;;;;;;12.15;8.30;;;;;;;18.55;72.69;100225.08;1696208;84;21095;-74
2021/07/28 00:07:05;;;;;;;;;;;;;;;18.50;72.79;100220.86;1678253;85;20986;-74
2021/07/28 00:09:31;;;;;;;14.87;9.20;;;;;;;18.45;72.89;100210.20;1704182;84;20162;-74
2021/07/28 00:11:57;;;;;;;21.90;10.18;;;;;;;18.43;72.98;100216.89;1675787;85;21071;-75
2021/07/28 00:14:23;;;;;;;15.10;8.98;;;;;;;18.42;73.09;100212.02;1704408;84;21020;-75
2021/07/28 00:16:49;;;;;;;15.65;9.10;;;;;;;18.47;73.15;100213.49;1676141;85;21014;-74
2021/07/28 00:19:22;;;;;;;14.70;9.45;;;;;;;18.52;73.19;100214.73;1704266;84;21576;-75
2021/07/28 00:24:31;;;;;;;12.80;9.63;;;;;;;18.48;73.21;100217.02;1686356;85;21095;-74
2021/07/28 00:27:01;;;;;;;11.57;9.15;;;;;;;18.48;73.20;100217.02;1676126;85;21050;-75
2021/07/28 00:29:30;;;;;;;13.95;9.75;;;;;;;18.49;73.17;100206.53;1704391;84;21098;-75
2021/07/28 00:31:56;;;;;;;14.05;9.88;;;;;;;18.51;73.16;100205.00;1676067;85;21011;-75
2021/07/28 00:34:22;;;;;;;12.93;9.88;;;;;;;18.54;73.17;100204.55;1704496;84;21022;-75
2021/07/28 00:36:48;;;;;;;12.07;8.75;;;;;;;18.52;73.12;100200.70;1675641;85;22199;-75
2021/07/28 00:39:14;;;;;;;16.23;10.65;;;;;;;18.50;73.15;100189.28;1704319;84;21039;-75
2021/07/28 00:41:42;;;;;;;17.17;12.70;;;;;;;18.51;73.16;100199.59;1676038;85;21034;-75
2021/07/28 00:44:08;;;;;;;13.30;9.70;;;;;;;18.51;73.16;100202.30;1704405;84;21011;-75
2021/07/28 00:46:34;;;;;;;13.45;9.08;;;;;;;18.50;73.16;100201.95;1675955;85;21018;-75
2021/07/28 00:49:00;;;;;;;14.13;9.75;;;;;;;18.46;73.18;100197.53;1704560;84;21027;-75
2021/07/28 00:51:26;;;;;;;14.45;10.50;;;;;;;18.42;73.25;100205.27;1675874;84;21483;-75
2021/07/28 00:53:52;;;;;;;12.93;9.68;;;;;;;18.41;73.28;100204.95;1704408;84;20983;-75
2021/07/28 00:56:18;;;;;;;12.65;9.40;;;;;;;18.42;73.29;100198.51;1676037;85;21062;-75
2021/07/28 00:58:45;;;;;;;11.83;9.15;;;;;;;18.41;73.29;100189.27;1686366;85;21068;-75
2021/07/28 01:01:11;;;;;;;16.50;10.03;;;;;;;18.39;73.36;100189.52;1676050;85;21133;-75
2021/07/28 01:03:39;;;;;;;13.85;10.05;;;;;;;18.36;73.42;100179.69;1704141;84;21015;-75
2021/07/28 01:06:05;;;;;;;11.45;9.70;;;;;;;18.36;73.45;100179.69;1684710;84;21063;-75
2021/07/28 01:08:31;;;;;;;12.47;8.98;;;;;;;18.37;73.47;100183.50;1703621;84;21112;-75
2021/07/28 01:10:59;;;;;;;10.68;9.38;;;;;;;18.41;73.50;100189.27;1689587;85;21036;-75
2021/07/28 01:13:30;;;;;;;13.20;10.23;;;;;;;18.42;73.51;100185.01;1704226;84;21254;-75
2021/07/28 01:16:03;;;;;;;13.08;9.70;;;;;;;18.44;73.53;100186.94;1689654;85;21071;-75
2021/07/28 01:18:30;;;;;;;12.90;9.80;;;;;;;18.46;73.53;100182.16;1675834;85;21050;-75
2021/07/28 01:20:56;;;;;;;11.78;9.80;;;;;;;18.49;73.56;100178.17;1677283;85;21087;-75
2021/07/28 01:23:23;;;;;;;14.87;10.08;;;;;;;18.48;73.59;100174.64;1677445;85;21539;-75
2021/07/28 01:25:50;;;;;;;14.25;9.35;;;;;;;18.48;73.63;100177.34;1718667;83;21314;-75
2021/07/28 01:28:17;;;;;;;12.90;9.88;;;;;;;18.52;73.70;100179.62;1689736;85;21505;-75
2021/07/28 01:30:44;;;;;;;15.08;9.80;;;;;;;18.53;73.70;100177.23;1689727;85;21020;-75
2021/07/28 01:33:10;;;;;;;14.18;9.38;;;;;;;18.53;73.75;100174.00;1689730;85;21023;-75
2021/07/28 01:35:37;;;;;;;12.75;9.45;;;;;;;18.54;73.83;100177.02;1689756;85;21023;-75
2021/07/28 01:38:08;;;;;;;12.20;9.45;;;;;;;18.54;73.86;100183.77;1689783;85;21838;-75
2021/07/28 01:40:39;;;;;;;19.03;9.17;;;;;;;18.53;73.88;100181.28;1689052;85;21075;-75
2021/07/28 01:43:15;;;;;;;14.78;9.95;;;;;;;18.52;73.93;100183.67;1689778;85;21067;-75
2021/07/28 01:45:41;;;;;;;12.85;9.50;;;;;;;18.51;73.97;100188.80;1689393;85;21028;-75
2021/07/28 01:48:08;;;;;;;16.35;10.38;;;;;;;18.52;74.01;100176.91;1689949;85;21516;-75
2021/07/28 01:50:35;;;;;;;14.53;10.75;;;;;;;18.54;74.01;100182.41;1718587;83;21153;-75
2021/07/28 01:53:02;;;;;;;13.70;10.75;;;;;;;18.55;74.03;100177.28;1689539;85;21011;-75
2021/07/28 01:55:28;;;;;;;12.82;9.90;;;;;;;18.58;74.05;100174.69;1689775;85;21016;-75
2021/07/28 01:57:57;;;;;;;14.63;10.48;;;;;;;18.57;74.05;100171.67;1704035;84;21483;-75
2021/07/28 02:00:23;;;;;;;17.52;10.03;;;;;;;18.55;74.10;100168.36;1690082;85;21027;-75
2021/07/28 02:02:49;;;;;;;14.90;9.55;;;;;;;18.53;74.11;100166.42;1704264;84;21156;-75
2021/07/28 02:05:15;;;;;;;14.03;8.93;;;;;;;18.52;74.13;100167.47;1689011;84;21060;-75
2021/07/28 02:07:41;;;;;;;14.98;9.25;;;;;;;18.50;74.15;100177.65;1690765;84;21535;-75
2021/07/28 02:10:09;;;;;;;15.30;10.18;;;;;;;18.50;74.17;100170.91;1686869;85;21537;-75
2021/07/28 02:12:35;;;;;;;15.78;9.60;;;;;;;18.48;74.23;100171.94;1690738;84;21048;-75
2021/07/28 02:15:01;;;;;;;16.50;10.58;;;;;;;18.50;74.31;100174.43;1686846;85;21738;-75
2021/07/28 02:17:27;;;;;;;15.28;10.32;;;;;;;18.50;74.35;100180.35;1690737;84;21508;-75
2021/07/28 02:19:53;;;;;;;15.45;10.63;;;;;;;18.48;74.38;100175.99;1686486;85;21071;-75
2021/07/28 02:22:19;;;;;;;18.23;11.08;;;;;;;18.42;74.44;100172.86;1690913;84;21004;-75
2021/07/28 02:24:45;;;;;;;16.55;10.45;;;;;;;18.38;74.52;100175.70;1686815;85;21908;-75
2021/07/28 02:27:11;;;;;;;14.03;9.28;;;;;;;18.38;74.62;100173.52;1690676;84;21159;-75
2021/07/28 02:29:37;;;;;;;15.43;10.32;;;;;;;18.33;74.67;100166.09;1686658;85;21039;-75
2021/07/28 02:32:04;;;;;;;12.30;9.08;;;;;;;18.31;74.76;100165.51;1690758;84;21369;-75
2021/07/28 02:34:30;;;;;;;12.78;9.63;;;;;;;18.29;74.81;100159.52;1686612;85;21062;-75
2021/07/28 02:36:57;;;;;;;11.00;9.20;;;;;;;18.28;74.90;100158.39;1690544;84;21071;-75
2021/07/28 02:39:23;;;;;;;13.88;9.73;;;;;;;18.27;74.97;100153.50;1686822;85;21496;-75
2021/07/28 02:41:49;;;;;;;15.58;9.30;;;;;;;18.30;75.02;100158.45;1690630;84;21020;-75
2021/07/28 02:44:15;;;;;;;13.88;10.10;;;;;;;18.30;75.06;100157.62;1686771;85;21015;-75
2021/07/28 02:46:41;;;;;;;12.75;10.28;;;;;;;18.31;75.08;100161.98;1690675;84;21013;-75
2021/07/28 02:49:07;;;;;;;11.90;9.43;;;;;;;18.34;75.15;100163.70;1686758;85;21094;-75
2021/07/28 02:51:34;;;;;;;13.53;10.80;;;;;;;18.36;75.18;100153.52;1690536;84;40009;-75
2021/07/28 02:54:00;;;;;;;15.78;10.53;;;;;;;18.38;75.20;100150.05;1686547;85;21026;-75
2021/07/28 02:56:26;;;;;;;16.37;10.43;;;;;;;18.41;75.23;100152.30;1690729;84;21012;-75
2021/07/28 02:58:52;;;;;;;16.55;10.28;;;;;;;18.40;75.27;100156.03;1686789;85;21003;-75
2021/07/28 03:01:18;;;;;;;12.53;10.58;;;;;;;18.40;75.32;100157.39;1690854;84;21023;-75
2021/07/28 03:03:44;;;;;;;15.80;10.95;;;;;;;18.41;75.35;100160.39;1686642;85;21161;-75
2021/07/28 03:06:10;;;;;;;14.10;10.53;;;;;;;18.42;75.39;100153.13;1688365;84;21438;-75
2021/07/28 03:08:36;;;;;;;15.83;10.60;;;;;;;18.43;75.41;100155.61;1684570;85;21086;-75
2021/07/28 03:11:02;;;;;;;15.95;11.15;;;;;;;18.43;75.47;100158.31;1685000;85;21839;-75
2021/07/28 03:13:28;;;;;;;18.40;12.63;;;;;;;18.43;75.50;100155.61;1684823;85;21020;-75
2021/07/28 03:15:54;;;;;;;14.38;10.78;;;;;;;18.45;75.55;100160.25;1684866;85;20993;-75
2021/07/28 03:18:20;;;;;;;16.02;11.45;;;;;;;18.48;75.57;100160.31;1684609;85;20996;-75
2021/07/28 03:20:46;;;;;;;16.37;11.43;;;;;;;18.50;75.62;100166.33;1684700;85;21024;-75
2021/07/28 03:23:12;;;;;;;16.17;10.70;;;;;;;18.53;75.64;100165.07;1684887;85;20992;-75
2021/07/28 03:25:38;;;;;;;20.00;13.15;;;;;;;18.54;75.67;100170.26;1684840;85;21015;-75
2021/07/28 03:28:05;;;;;;;19.15;14.00;;;;;;;18.56;75.66;100165.96;1685043;85;21933;-75
2021/07/28 03:30:31;;;;;;;20.77;13.60;;;;;;;18.58;75.71;100168.73;1684776;85;21000;-75
2021/07/28 03:32:57;;;;;;;20.32;14.45;;;;;;;18.62;75.73;100174.50;1684712;85;21095;-75
2021/07/28 03:35:23;;;;;;;29.23;14.43;;;;;;;18.65;75.75;100179.44;1684863;85;21165;-75
2021/07/28 03:37:49;;;;;;;23.27;14.25;;;;;;;18.66;75.75;100181.10;1684915;85;21004;-75
2021/07/28 03:40:16;;;;;;;18.75;14.07;;;;;;;18.68;75.81;100171.70;1684602;85;21856;-75
2021/07/28 03:42:44;;;;;;;21.02;14.25;;;;;;;18.75;75.81;100171.64;1684830;85;21504;-75
2021/07/28 03:45:10;;;;;;;15.35;12.40;;;;;;;18.76;75.81;100166.52;1676180;85;21043;-75
2021/07/28 03:47:36;;;;;;;17.73;12.53;;;;;;;18.80;75.84;100160.95;1704368;84;20999;-75
2021/07/28 03:50:03;;;;;;;20.17;12.53;;;;;;;18.83;75.87;100155.09;1676318;85;21062;-75
2021/07/28 03:52:29;;;;;;;18.85;13.05;;;;;;;18.85;75.85;100158.41;1686380;85;21143;-75
2021/07/28 03:54:55;;;;;;;17.87;12.80;;;;;;;18.85;75.84;100155.70;1676034;85;21054;-75
2021/07/28 03:57:21;;;;;;;16.30;13.35;;;;;;;18.86;75.80;100154.63;1704446;84;21023;-75
2021/07/28 03:59:47;;;;;;;17.57;13.18;;;;;;;18.88;75.79;100159.30;1676174;85;21025;-75
2021/07/28 04:02:13;;;;;;;17.45;13.85;;;;;;;18.90;75.81;100161.23;1704678;84;20999;-75
2021/07/28 04:04:40;;;;;;;18.02;14.98;;;;;;;18.94;75.83;100162.42;1676013;85;21669;-75
2021/07/28 04:07:07;;;;;;;21.73;17.05;;;;;;;18.97;75.79;100172.77;1704267;84;21010;-75
2021/07/28 04:09:33;;;;;;;26.60;18.70;;;;;;;18.97;75.79;100176.82;1676148;85;21053;-75
2021/07/28 04:11:59;;;;;;;21.23;15.40;;;;;;;18.98;75.82;100169.02;1704431;84;21008;-75
2021/07/28 04:14:25;;;;;;;24.77;16.90;;;;;;;18.95;75.80;100164.91;1676179;85;21062;-75
2021/07/28 04:16:51;;;;;;;23.12;15.70;;;;;;;18.92;75.85;100172.65;1704428;84;21790;-75
2021/07/28 04:19:17;;;;;;;18.50;14.28;;;;;;;18.90;75.92;100163.93;1675911;85;21014;-75
2021/07/28 04:21:43;;;;;;;19.90;14.13;;;;;;;18.88;75.96;100164.17;1704407;84;21075;-75
2021/07/28 04:24:09;;;;;;;18.82;12.73;;;;;;;18.88;76.01;100159.30;1676228;85;21017;-75
2021/07/28 04:26:35;;;;;;;19.48;13.88;;;;;;;18.88;76.06;100157.94;1704367;84;21083;-75
2021/07/28 04:29:01;;;;;;;19.48;14.28;;;;;;;18.88;76.11;100160.64;1676299;85;21467;-75
2021/07/28 04:31:27;;;;;;;21.37;14.05;;;;;;;18.91;76.15;100157.48;1704560;84;21006;-75
2021/07/28 04:33:53;;;;;;;17.35;13.43;;;;;;;18.94;76.15;100157.84;1675968;85;21050;-75
2021/07/28 04:36:19;;;;;;;21.65;14.20;;;;;;;19.01;76.18;100150.98;1704491;84;21520;-75
2021/07/28 04:38:45;;;;;;;20.57;13.70;;;;;;;19.06;76.20;100151.12;1676092;85;21053;-75
2021/07/28 04:41:11;;;;;;;18.02;13.70;;;;;;;19.12;76.25;100156.95;1686246;85;21004;-75
2021/07/28 04:43:37;;;;;;;14.47;12.58;;;;;;;19.20;76.29;100148.52;1676007;85;21841;-75
2021/07/28 04:46:04;;;;;;;19.62;13.62;;;;;;;19.23;76.32;100137.23;1704480;84;20995;-75
2021/07/28 04:48:30;;;;;;;17.65;13.43;;;;;;;19.27;76.36;100141.13;1676000;85;21058;-75
2021/07/28 04:50:56;;;;;;;15.63;13.32;;;;;;;19.31;76.39;100134.73;1704403;84;21030;-75
2021/07/28 04:53:23;;;;;;;17.30;13.35;;;;;;;19.38;76.42;100134.91;1675975;85;21143;-75
2021/07/28 04:55:52;;;;;;;23.95;14.07;;;;;;;19.46;76.42;100129.70;1686361;84;21059;-74
2021/07/28 04:58:19;;;;;;;18.23;13.72;;;;;;;19.55;76.38;100119.36;1676101;85;21078;-75
2021/07/28 05:00:47;;;;;;;20.92;15.32;;;;;;;19.62;76.34;100118.19;1704415;84;21054;-75
2021/07/28 05:03:13;;;;;;;19.55;14.98;;;;;;;19.67;76.36;100123.70;1676110;85;21037;-75
2021/07/28 05:05:39;;;;;;;21.60;15.80;;;;;;;19.75;76.33;100122.00;1704120;84;20994;-75
2021/07/28 05:08:05;;;;;;;21.00;14.35;;;;;;;19.85;76.28;100124.10;1685715;84;21015;-75
2021/07/28 05:10:31;;;;;;;18.17;13.62;;;;;;;19.97;76.21;100123.57;1690803;84;21020;-75
2021/07/28 05:12:57;;;;;;;19.92;14.35;;;;;;;20.08;76.15;100126.80;1686926;85;21481;-75
2021/07/28 05:15:23;;;;;;;16.07;13.38;;;;;;;20.17;76.09;100125.34;1690910;84;21051;-75
2021/07/28 05:17:49;;;;;;;21.17;15.05;;;;;;;20.27;76.04;100116.11;1686778;85;20980;-75
2021/07/28 05:20:18;;;;;;;17.48;13.95;;;;;;;20.44;76.06;100115.64;1690759;84;21064;-77
2021/07/28 05:22:48;;;;;;;17.40;12.68;;;;;;;20.80;76.02;100111.72;1686783;85;21024;-75
2021/07/28 05:25:15;;;;;;;;;;;;;;;21.17;75.88;100108.59;1693267;84;21024;-76
2021/07/28 05:27:41;;;;;;;13.60;10.95;;;;;;;21.57;75.76;100111.14;1701064;84;20187;-75
2021/07/28 05:30:08;;;;;;;17.92;11.73;;;;;;;21.68;75.58;100108.84;1700998;84;21611;-75
2021/07/28 05:32:34;;;;;;;18.90;13.38;;;;;;;21.61;75.35;100109.55;1700938;84;21476;-75
2021/07/28 05:35:00;;;;;;;14.93;12.30;;;;;;;21.61;75.21;100109.55;1701032;84;21011;-76
2021/07/28 05:37:28;;;;;;;16.32;12.50;;;;;;;21.64;74.94;100105.00;1701006;84;21080;-75
2021/07/28 05:39:55;;;;;;;20.75;12.80;;;;;;;21.67;74.79;100111.28;1701106;84;21994;-76
2021/07/28 05:42:21;;;;;;;16.73;12.65;;;;;;;21.67;74.61;100108.58;1695251;84;21502;-75
2021/07/28 05:44:47;;;;;;;15.70;13.32;;;;;;;21.68;74.39;100106.13;1674209;84;21194;-75
2021/07/28 05:47:13;;;;;;;22.20;15.45;;;;;;;21.61;74.16;100106.30;1673722;85;21069;-75
2021/07/28 05:49:39;;;;;;;20.95;15.35;;;;;;;21.48;73.88;100099.05;1674261;85;21002;-75
2021/07/28 05:52:06;;;;;;;13.88;11.73;;;;;;;21.40;73.80;100091.61;1674396;85;21025;-75
2021/07/28 05:54:32;;;;;;;15.90;12.85;;;;;;;21.35;73.67;100090.19;1673379;85;21462;-75
2021/07/28 05:56:58;;;;;;;14.60;11.15;;;;;;;21.30;73.58;100084.67;1673693;85;21041;-75
2021/07/28 05:59:24;;;;;;;14.53;12.68;;;;;;;21.33;73.46;100093.67;1674312;85;21477;-75
2021/07/28 06:01:50;;;;;;;16.87;12.25;;;;;;;21.37;73.34;100092.64;1674022;85;21050;-75
2021/07/28 06:04:16;;;;;;;15.78;10.82;;;;;;;21.45;73.26;100091.41;1674239;85;21006;-76
2021/07/28 06:06:42;;;;;;;14.75;11.68;;;;;;;21.53;73.15;100096.42;1674120;85;21313;-75
2021/07/28 06:09:08;;;;;;;13.50;11.03;;;;;;;21.51;72.99;100087.69;1673909;85;21622;-75
2021/07/28 06:11:34;;;;;;;13.85;11.33;;;;;;;21.47;72.94;100083.29;1679569;84;20887;-76
2021/07/28 06:14:00;;;;;;;14.53;11.35;;;;;;;21.48;72.85;100082.23;1686727;84;21017;-75
2021/07/28 06:16:26;;;;;;;18.55;10.82;;;;;;;21.47;72.82;100077.04;1695602;84;21017;-75
2021/07/28 06:18:52;;;;;;;14.98;11.40;;;;;;;21.60;72.78;100084.33;1674047;85;21385;-76
2021/07/28 06:21:18;;;;;;;12.35;9.80;;;;;;;22.15;72.71;100084.27;1674099;85;20999;-76
2021/07/28 06:23:44;;;;;;;13.70;9.63;;;;;;;22.78;72.48;100081.45;1697060;84;21065;-76
2021/07/28 06:26:10;;;;;;;15.32;10.95;;;;;;;23.30;72.23;100079.72;1691262;83;21450;-76
2021/07/28 06:28:36;;;;;;;18.60;9.55;;;;;;;23.92;71.84;100086.41;1697746;84;21424;-76
2021/07/28 06:31:02;;;;;;;11.05;8.25;;;;;;;24.42;71.38;100081.73;1678233;84;21848;-76
2021/07/28 06:33:28;;;;;;;10.05;7.97;;;;;;;24.66;70.89;100085.61;1680049;84;20953;-76
2021/07/28 06:35:54;;;;;;;9.38;8.35;;;;;;;24.64;70.43;100079.58;1683117;82;20915;-76
2021/07/28 06:38:20;;;;;;;10.10;8.20;;;;;;;24.54;69.87;100083.12;1682260;84;21021;-76
2021/07/28 06:40:46;;;;;;;16.20;9.40;;;;;;;24.16;69.41;100080.28;1688495;84;20918;-75
2021/07/28 06:43:13;;;;;;;10.53;8.45;;;;;;;24.03;69.21;100077.98;1684226;82;22001;-75
2021/07/28 06:45:39;;;;;;;15.83;8.73;;;;;;;23.85;68.74;100077.11;1701326;84;21454;-76
2021/07/28 06:48:06;;;;;;;11.48;8.25;;;;;;;23.73;68.56;100080.57;1693110;84;21344;-76
2021/07/28 06:50:32;;;;;;;12.28;8.75;;;;;;;23.68;68.28;100076.47;1684570;84;21037;-76
2021/07/28 06:52:58;;;;;;;13.72;9.03;;;;;;;23.67;68.10;100088.44;1677014;84;20945;-76
2021/07/28 06:55:24;;;;;;;10.32;8.30;;;;;;;23.72;67.90;100088.45;1688898;84;21938;-76
2021/07/28 06:57:50;;;;;;;9.93;8.23;;;;;;;23.72;67.68;100087.09;1687661;84;20947;-76
2021/07/28 07:00:17;;;;;;;15.45;8.65;;;;;;;23.62;67.48;100082.95;1701377;84;20888;-76
2021/07/28 07:02:43;;;;;;;11.60;7.72;;;;;;;23.71;67.41;100085.48;1692433;83;20998;-76
2021/07/28 07:05:11;;;;;;;16.90;8.65;;;;;;;23.86;67.28;100087.72;1682232;84;21033;-76
2021/07/28 07:07:37;;;;;;;10.75;8.88;;;;;;;23.91;67.05;100082.85;1687662;84;21809;-76
2021/07/28 07:10:08;;;;;;;10.45;8.60;;;;;;;23.86;66.87;100086.90;1701271;82;21026;-76
2021/07/28 07:12:32;;;;;;;9.20;8.18;;;;;;;23.85;66.72;100085.28;1674794;84;21284;-76
2021/07/28 07:14:58;;;;;;;12.95;8.75;;;;;;;23.85;66.64;100077.11;1691446;84;21498;-76
2021/07/28 07:17:24;;;;;;;13.15;8.05;;;;;;;23.89;66.56;100075.47;1700671;84;21505;-76
2021/07/28 07:19:50;;;;;;;8.53;7.62;;;;;;;23.89;66.45;100075.47;1699407;84;22698;-76
2021/07/28 07:22:16;;;;;;;16.85;8.95;;;;;;;23.98;66.37;100081.25;1701749;84;20983;-76
2021/07/28 07:24:43;;;;;;;15.55;10.18;;;;;;;24.10;66.30;100076.41;1701808;84;21339;-76
2021/07/28 07:27:09;;;;;;;14.90;9.68;;;;;;;24.20;66.16;100084.11;1699198;84;21002;-76
2021/07/28 07:29:35;;;;;;;16.32;10.60;;;;;;;24.32;66.12;100083.86;1700949;84;20994;-76
2021/07/28 07:32:02;;;;;;;15.43;9.88;;;;;;;24.45;66.00;100083.92;1701486;84;21852;-76
2021/07/28 07:34:29;;;;;;;13.13;9.70;;;;;;;24.58;65.89;100077.94;1690120;84;20953;-76
2021/07/28 07:36:55;;;;;;;16.10;10.32;;;;;;;24.70;65.79;100075.23;1697620;84;20998;-76
2021/07/28 07:39:21;;;;;;;14.30;9.18;;;;;;;24.89;65.71;100076.10;1693564;84;21049;-76
2021/07/28 07:41:47;;;;;;;10.58;8.78;;;;;;;24.99;65.46;100081.02;1692971;84;21638;-76
2021/07/28 07:44:13;;;;;;;16.32;9.78;;;;;;;24.98;65.19;100079.38;1690525;84;22782;-76
2021/07/28 07:46:39;;;;;;;18.40;9.05;;;;;;;24.89;65.12;100074.73;1700651;84;20966;-76
2021/07/28 07:49:05;;;;;;;16.05;9.88;;;;;;;24.87;65.11;100073.66;1700819;84;21008;-76
2021/07/28 07:51:31;;;;;;;12.40;9.50;;;;;;;24.85;65.00;100076.66;1701680;84;21014;-76
2021/07/28 07:53:58;;;;;;;15.23;9.13;;;;;;;24.97;64.89;100078.30;1699491;84;21081;-74
2021/07/28 07:56:24;;;;;;;15.15;8.55;;;;;;;25.09;64.80;100068.74;1687977;84;22022;-75
2021/07/28 07:58:50;;;;;;;10.35;8.38;;;;;;;25.16;64.61;100080.20;1701738;84;20958;-75
2021/07/28 08:01:16;;;;;;;10.05;7.92;;;;;;;25.18;64.53;100079.41;1692655;84;21056;-74
2021/07/28 08:03:42;;;;;;;15.35;8.98;;;;;;;25.14;64.42;100085.13;1701721;84;21426;-74
2021/07/28 08:06:09;;;;;;;17.32;9.68;;;;;;;25.17;64.32;100078.30;1701044;84;21025;-74
2021/07/28 08:08:36;;;;;;;11.65;7.80;;;;;;;25.20;64.15;100075.02;1698708;83;21961;-74
2021/07/28 08:11:08;;;;;;;10.00;8.00;;;;;;;25.18;64.06;100076.67;1704304;83;20988;-74
2021/07/28 08:13:35;;;;;;;10.32;7.55;;;;;;;25.18;64.00;100070.39;1705525;83;21051;-74
2021/07/28 08:16:02;;;;;;;11.40;7.78;;;;;;;25.19;63.89;100071.46;1715630;83;20992;-74
2021/07/28 08:18:28;;;;;;;17.20;8.33;;;;;;;25.20;63.84;100064.92;1678397;85;20986;-74
2021/07/28 08:20:54;;;;;;;11.55;7.90;;;;;;;25.33;63.75;100065.72;1692833;83;21770;-73
2021/07/28 08:23:20;;;;;;;12.47;7.55;;;;;;;25.48;63.63;100068.98;1718320;83;21017;-74
2021/07/28 08:25:46;;;;;;;13.05;7.70;;;;;;;25.59;63.64;100072.55;1710542;83;20904;-74
2021/07/28 08:28:12;;;;;;;9.63;6.65;;;;;;;25.71;63.49;100073.08;1713332;83;21001;-74
2021/07/28 08:30:40;;;;;;;14.35;8.23;;;;;;;25.82;63.38;100070.59;1714275;83;21016;-74
2021/07/28 08:33:06;;;;;;;14.53;7.05;;;;;;;25.90;63.27;100071.36;1711045;83;21854;-74
2021/07/28 08:35:32;;;;;;;14.30;7.42;;;;;;;26.08;63.06;100074.84;1708532;83;21009;-75
2021/07/28 08:37:58;;;;;;;9.78;7.30;;;;;;;26.19;62.84;100072.38;1715358;83;21034;-74
2021/07/28 08:40:24;;;;;;;11.30;6.95;;;;;;;26.24;62.68;100070.17;1718887;83;21470;-75
2021/07/28 08:42:50;;;;;;;11.73;7.40;;;;;;;26.39;62.47;100072.02;1724782;83;20943;-74
2021/07/28 08:45:17;;;;;;;9.30;7.22;;;;;;;26.49;62.10;100063.21;1706588;81;21710;-74
2021/07/28 08:47:43;;;;;;;10.82;7.10;;;;;;;26.64;61.86;100062.27;1704512;83;21002;-75
2021/07/28 08:50:10;;;;;;;9.80;7.75;;;;;;;26.83;61.66;100067.38;1711534;83;21508;-74
2021/07/28 08:52:37;;;;;;;9.15;7.40;;;;;;;27.03;61.29;100069.95;1702710;83;20950;-75
2021/07/28 08:55:05;;;;;;;9.58;7.10;;;;;;;27.12;60.96;100077.84;1721101;83;21042;-74
2021/07/28 08:57:34;;;;;;;8.80;7.30;;;;;;;27.18;60.65;100075.86;1703482;83;22535;-75
2021/07/28 09:00:01;;;;;;;8.85;6.90;;;;;;;27.17;60.31;100076.41;1699408;83;21022;-74
2021/07/28 09:02:28;;;;;;;15.45;7.67;;;;;;;27.18;60.13;100077.23;1707800;83;21777;-74
2021/07/28 09:04:54;;;;;;;12.90;7.37;;;;;;;27.20;59.89;100085.41;1706659;83;21014;-74
2021/07/28 09:07:21;;;;;;;10.95;7.30;;;;;;;27.18;59.72;100078.05;1725137;83;21034;-74
2021/07/28 09:09:58;;;;;;;12.88;7.37;;;;;;;27.12;59.68;100088.79;1715545;82;21753;-74
2021/07/28 09:12:33;;;;;;;14.50;7.10;;;;;;;27.12;59.61;100088.79;1717496;82;21001;-74
2021/07/28 09:15:04;;;;;;;10.80;6.80;;;;;;;27.10;59.58;100093.72;1708042;83;20998;-74
2021/07/28 09:17:31;;;;;;;8.73;6.53;;;;;;;27.21;59.45;100088.42;1699102;83;21093;-74
2021/07/28 09:19:58;;;;;;;10.03;6.97;;;;;;;27.36;59.34;100092.14;1706231;83;21065;-74
2021/07/28 09:22:37;;;;;;;9.00;6.30;;;;;;;27.49;59.09;100081.89;1723796;83;22629;-74
2021/07/28 09:25:20;;;;;;;12.07;6.50;;;;;;;27.57;58.87;100079.36;1704090;83;21019;-75
2021/07/28 09:27:51;;;;;;;11.60;6.75;;;;;;;27.50;58.56;100089.84;1709101;81;21055;-74
2021/07/28 09:30:30;;;;;;;10.43;7.62;;;;;;;27.51;58.39;100090.66;1690652;84;21534;-75
2021/07/28 09:33:09;;;;;;;12.40;7.10;;;;;;;27.70;58.23;100095.11;1703212;84;21037;-75
2021/07/28 09:35:56;;;;;;;10.55;6.47;;;;;;;28.02;58.00;100080.77;1724218;83;22500;-75
2021/07/28 09:38:34;;;;;;;8.60;6.80;;;;;;;28.48;57.80;100082.95;1722314;81;20934;-75
2021/07/28 09:41:26;;;;;;;8.13;6.97;;;;;;;28.66;57.48;100079.40;1673594;84;20969;-75
2021/07/28 09:43:56;;;;;;;9.17;5.70;;;;;;;28.59;56.49;100057.00;1685863;84;20982;-74
2021/07/28 09:46:34;;;;;;;8.90;6.30;;;;;;;28.59;56.49;100057.00;1680126;84;21511;-74
2021/07/28 09:49:06;;;;;;;7.77;6.13;;;;;;;28.61;56.32;100080.83;1691230;84;21837;-75
2021/07/28 09:51:43;;;;;;;8.43;5.87;;;;;;;28.39;56.06;100086.11;1681117;84;21341;-74
2021/07/28 09:54:10;;;;;;;7.28;5.92;;;;;;;28.23;55.92;100082.18;1685209;83;21014;-75
2021/07/28 09:56:54;;;;;;;8.80;6.22;;;;;;;28.57;55.85;100081.19;1690197;84;21098;-75
2021/07/28 09:59:22;;;;;;;10.75;6.03;;;;;;;28.93;55.45;100085.59;1702378;84;21022;-74
2021/07/28 10:01:48;;;;;;;19.98;6.90;;;;;;;29.03;54.95;100084.87;1693512;84;21852;-75
2021/07/28 10:04:16;;;;;;;8.83;6.05;;;;;;;28.94;54.68;100083.12;1694943;84;21549;-75
2021/07/28 10:06:44;;;;;;;6.97;6.12;;;;;;;28.87;54.59;100083.50;1697559;84;21017;-75
2021/07/28 10:09:12;;;;;;;7.25;5.78;;;;;;;28.94;54.38;100083.12;1690820;83;21109;-74
2021/07/28 10:11:44;;;;;;;9.40;6.22;;;;;;;29.00;54.15;100088.78;1691988;84;21018;-74
2021/07/28 10:14:10;;;;;;;6.60;5.25;;;;;;;28.88;53.78;100090.63;1678836;84;21863;-74
2021/07/28 10:16:37;;;;;;;8.00;5.12;;;;;;;28.65;53.23;100094.22;1685136;84;21279;-74
2021/07/28 10:19:04;;;;;;;9.50;5.80;;;;;;;28.41;52.98;100094.30;1699067;84;21466;-74
2021/07/28 10:21:32;;;;;;;7.53;5.70;;;;;;;28.27;52.81;100077.74;1683679;84;21354;-74
2021/07/28 10:23:58;;;;;;;9.25;6.83;;;;;;;28.18;52.72;100083.60;1675518;84;21069;-74
2021/07/28 10:26:24;;;;;;;6.67;5.97;;;;;;;28.06;52.62;100088.67;1688136;84;22555;-74
2021/07/28 10:28:50;;;;;;;6.72;6.00;;;;;;;28.09;52.64;100090.04;1672317;85;20955;-75
2021/07/28 10:31:18;;;;;;;12.43;5.30;;;;;;;28.04;52.54;100084.02;1674453;84;21026;-74
2021/07/28 10:33:50;;;;;;;9.75;5.72;;;;;;;27.95;52.50;100085.78;1680401;84;21115;-74
2021/07/28 10:36:21;;;;;;;5.75;5.20;;;;;;;27.79;52.25;100089.27;1687835;84;20922;-75
2021/07/28 10:38:55;;;;;;;8.20;5.53;;;;;;;27.63;52.13;100088.33;1695080;84;21775;-72
2021/07/28 10:41:46;;;;;;;10.55;5.75;;;;;;;27.50;52.05;100091.77;1679252;84;21435;-77
2021/07/28 10:44:18;;;;;;;10.40;6.08;;;;;;;27.48;52.03;100089.30;1673270;84;21033;-77
2021/07/28 10:47:08;;;;;;;6.75;5.83;;;;;;;27.66;52.25;100095.97;1673298;85;21006;-77
2021/07/28 10:49:42;;;;;;;7.05;6.35;;;;;;;27.80;52.12;100105.96;1673600;85;21431;-77
2021/07/28 10:52:13;;;;;;;8.85;6.00;;;;;;;27.76;52.11;100110.38;1678019;83;21818;-77
2021/07/28 10:54:52;;;;;;;7.00;5.97;;;;;;;27.67;52.09;100106.66;1688662;84;21001;-77
2021/07/28 10:57:44;;;;;;;6.80;6.10;;;;;;;27.70;52.21;100100.59;1688051;84;21014;-77
2021/07/28 11:00:08;;;;;;;7.40;6.00;;;;;;;27.91;52.22;100101.19;1698777;84;21000;-76
2021/07/28 11:02:58;;;;;;;10.20;5.80;;;;;;;28.05;51.91;100088.41;1701813;84;21794;-76
2021/07/28 11:05:29;;;;;;;7.20;5.87;;;;;;;28.23;51.79;100086.30;1693291;84;22468;-77
2021/07/28 11:08:12;;;;;;;9.95;6.35;;;;;;;28.24;51.53;100082.45;1692093;84;20954;-77
2021/07/28 11:10:47;;;;;;;7.53;6.22;;;;;;;28.30;51.35;100070.84;1698847;84;20988;-77
2021/07/28 11:13:15;;;;;;;8.70;6.45;;;;;;;28.37;51.19;100075.41;1692918;83;21474;-77
2021/07/28 11:15:56;;;;;;;6.90;6.12;;;;;;;28.50;51.02;100078.79;1680516;83;21009;-77
2021/07/28 11:18:39;;;;;;;12.95;7.17;;;;;;;28.54;50.93;100082.58;1670702;84;21741;-77
2021/07/28 11:21:23;;;;;;;9.60;7.03;;;;;;;28.60;50.91;100081.41;1673554;85;20994;-77
2021/07/28 11:23:54;;;;;;;6.92;6.05;;;;;;;28.63;50.70;100093.72;1689255;84;21375;-77